Sagres — CTEC — position and weather

sailwx.info

Track history (hours):
 
Tides and Currents Weather Stations Pressure Air Temp Water Temp Dewpoint Dewpoint Depression Visibility Wind Speed Wind Dir Waves Ship Positions

Sagres (Portugal)

Last reported at 2020-Jan-13 12:00 UTC. Time now 2020-Jan-24 04:22 UTC.
Position N 28°17' W 016°18'.
Warning: this ship's position is 10 days out of date.

Length 90 m; draft 5.5 m.

Type: Sailing vessel. MMSI: 263141000.

Date/timePositionNaut miles runAvg speedWind from/ knotsBaromVisibWave heightAir tempDewpointWater temp
2020-Jan-13 12:00N 28°17' W 016°18'8 7.7
2020-Jan-13 11:00N 28°24' W 016°16'4 1.3
2020-Jan-13 08:00N 28°28' W 016°15'0 0.0
2020-Jan-13 06:30N 28°28' W 016°15'0 0.0
2020-Jan-13 05:00N 28°28' W 016°15'0 0.0
2020-Jan-13 04:30N 28°28' W 016°15'0 0.0
2020-Jan-13 04:00N 28°28' W 016°15'0 0.0
2020-Jan-13 03:30N 28°28' W 016°15'0 0.0
2020-Jan-13 02:00N 28°28' W 016°15'0 0.0
2020-Jan-13 01:30N 28°28' W 016°15'0 0.0
2020-Jan-13 00:30N 28°28' W 016°15'0 0.0
2020-Jan-12 20:30N 28°28' W 016°15'0 0.0
2020-Jan-12 18:30N 28°28' W 016°15'0 0.0
2020-Jan-12 17:30N 28°28' W 016°15'0 0.0
2020-Jan-12 16:30N 28°28' W 016°15'0 0.0
2020-Jan-12 16:00N 28°28' W 016°15'0 0.0
2020-Jan-12 15:30N 28°28' W 016°15'0 0.0
2020-Jan-12 12:30N 28°28' W 016°15'0 0.0
2020-Jan-12 11:30N 28°28' W 016°15'0 0.0
2020-Jan-12 10:30N 28°28' W 016°15'0 0.0
2020-Jan-12 09:00N 28°28' W 016°15'0 0.0
2020-Jan-12 08:30N 28°28' W 016°15'0 0.0
2020-Jan-12 07:00N 28°28' W 016°15'0 0.0
2020-Jan-12 03:00N 28°28' W 016°15'0 0.0
2020-Jan-12 01:00N 28°28' W 016°15'0 0.0
2020-Jan-12 00:00N 28°28' W 016°15'0 0.0
2020-Jan-11 23:00N 28°28' W 016°15'0 0.0
2020-Jan-11 22:30N 28°28' W 016°15'0 0.0
2020-Jan-11 21:30N 28°28' W 016°15'0 0.0
2020-Jan-11 21:00N 28°28' W 016°15'0 0.0
2020-Jan-11 17:00N 28°28' W 016°15'0 0.0
2020-Jan-11 16:00N 28°28' W 016°15'0 0.0
2020-Jan-11 11:00N 28°28' W 016°15'0 0.0
2020-Jan-11 06:30N 28°28' W 016°15'0 0.0
2020-Jan-11 03:30N 28°28' W 016°15'0 0.0
2020-Jan-11 03:00N 28°28' W 016°15'0 0.0
2020-Jan-11 02:30N 28°28' W 016°15'0 0.0
2020-Jan-11 01:30N 28°28' W 016°15'0 0.0
2020-Jan-11 00:00N 28°28' W 016°15'0 0.0
2020-Jan-10 23:30N 28°28' W 016°15'0 0.0
2020-Jan-10 17:30N 28°28' W 016°15'0 0.0
2020-Jan-10 17:00N 28°28' W 016°15'0 0.0
2020-Jan-10 15:30N 28°28' W 016°15'0 0.0
2020-Jan-10 12:30N 28°28' W 016°15'0 0.0
2020-Jan-10 10:30N 28°28' W 016°15'2 0.8
2020-Jan-10 08:30N 28°26' W 016°15'2 4.0
2020-Jan-10 08:00N 28°28' W 016°13'1 1.1
2020-Jan-10 07:30N 28°27' W 016°13'1 1.7
2020-Jan-10 07:00N 28°26' W 016°13'2 3.7
2020-Jan-10 06:30N 28°24' W 016°13'13 2.6
2020-Jan-10 01:30N 28°31' W 016°01'4 7.0
2020-Jan-10 01:00N 28°34' W 015°59'  
2020-Jan-05 15:00N 38°36' W 009°29'9 4.3
2020-Jan-05 13:00N 38°40' W 009°19'7 7.5
2020-Jan-05 12:00N 38°42' W 009°10'2 1.6
2020-Jan-05 10:29N 38°43' W 009°07'0 0.0
2020-Jan-05 09:29N 38°43' W 009°07'0 0.0
2020-Jan-05 08:59N 38°43' W 009°07'0 0.0
2020-Jan-05 08:29N 38°43' W 009°07'0 0.0
2020-Jan-05 07:29N 38°43' W 009°07'0 0.0
2020-Jan-05 06:59N 38°43' W 009°07'0 0.0
2020-Jan-05 05:59N 38°43' W 009°07'0 0.0
2020-Jan-05 05:29N 38°43' W 009°07'0 0.0
2020-Jan-04 22:26N 38°43' W 009°07'0 0.0
2020-Jan-04 20:59N 38°43' W 009°07'0 0.0
2020-Jan-04 20:29N 38°43' W 009°07'0 0.0
2020-Jan-04 19:29N 38°43' W 009°07'0 0.0
2020-Jan-04 16:59N 38°43' W 009°07'0 0.0
2020-Jan-04 15:56N 38°43' W 009°07'0 0.0
2020-Jan-04 15:29N 38°43' W 009°07'0 0.0
2020-Jan-04 14:59N 38°43' W 009°07'0 0.0
2020-Jan-04 13:59N 38°43' W 009°07'0 0.0
2020-Jan-04 09:59N 38°43' W 009°07'0 0.0
2020-Jan-04 08:29N 38°43' W 009°07'0 0.0
2020-Jan-04 07:59N 38°43' W 009°07'0 0.0
2020-Jan-04 06:59N 38°43' W 009°07'0 0.0
2020-Jan-04 06:29N 38°43' W 009°07'0 0.0
2020-Jan-04 04:59N 38°43' W 009°07'0 0.0
2020-Jan-04 04:29N 38°43' W 009°07'0 0.0
2020-Jan-04 02:59N 38°43' W 009°07'0 0.0
2020-Jan-03 20:59N 38°43' W 009°07'0 0.0
2020-Jan-03 18:59N 38°43' W 009°07'3 0.5
2020-Jan-03 13:28N 38°40' W 009°09'0 0.0
2020-Jan-03 12:28N 38°40' W 009°09'  
Track history (hours):
 
Tides and Currents Weather Stations Pressure Air Temp Water Temp Dewpoint Dewpoint Depression Visibility Wind Speed Wind Dir Waves Ship Positions

Sagres (Portugal)

Last reported at 2020-Jan-13 12:00 UTC. Time now 2020-Jan-24 04:22 UTC.
Position N 28°17' W 016°18'.
Warning: this ship's position is 10 days out of date.

Length 90 m; draft 5.5 m.

Type: Sailing vessel. MMSI: 263141000.

Date/timePositionNaut miles runAvg speedWind from/ knotsBaromVisibWave heightAir tempDewpointWater temp
2020-Jan-13 12:00N 28°17' W 016°18'8 7.7
2020-Jan-13 11:00N 28°24' W 016°16'4 1.3
2020-Jan-13 08:00N 28°28' W 016°15'0 0.0
2020-Jan-13 06:30N 28°28' W 016°15'0 0.0
2020-Jan-13 05:00N 28°28' W 016°15'0 0.0
2020-Jan-13 04:30N 28°28' W 016°15'0 0.0
2020-Jan-13 04:00N 28°28' W 016°15'0 0.0
2020-Jan-13 03:30N 28°28' W 016°15'0 0.0
2020-Jan-13 02:00N 28°28' W 016°15'0 0.0
2020-Jan-13 01:30N 28°28' W 016°15'0 0.0
2020-Jan-13 00:30N 28°28' W 016°15'0 0.0
2020-Jan-12 20:30N 28°28' W 016°15'0 0.0
2020-Jan-12 18:30N 28°28' W 016°15'0 0.0
2020-Jan-12 17:30N 28°28' W 016°15'0 0.0
2020-Jan-12 16:30N 28°28' W 016°15'0 0.0
2020-Jan-12 16:00N 28°28' W 016°15'0 0.0
2020-Jan-12 15:30N 28°28' W 016°15'0 0.0
2020-Jan-12 12:30N 28°28' W 016°15'0 0.0
2020-Jan-12 11:30N 28°28' W 016°15'0 0.0
2020-Jan-12 10:30N 28°28' W 016°15'0 0.0
2020-Jan-12 09:00N 28°28' W 016°15'0 0.0
2020-Jan-12 08:30N 28°28' W 016°15'0 0.0
2020-Jan-12 07:00N 28°28' W 016°15'0 0.0
2020-Jan-12 03:00N 28°28' W 016°15'0 0.0
2020-Jan-12 01:00N 28°28' W 016°15'0 0.0
2020-Jan-12 00:00N 28°28' W 016°15'0 0.0
2020-Jan-11 23:00N 28°28' W 016°15'0 0.0
2020-Jan-11 22:30N 28°28' W 016°15'0 0.0
2020-Jan-11 21:30N 28°28' W 016°15'0 0.0
2020-Jan-11 21:00N 28°28' W 016°15'0 0.0
2020-Jan-11 17:00N 28°28' W 016°15'0 0.0
2020-Jan-11 16:00N 28°28' W 016°15'0 0.0
2020-Jan-11 11:00N 28°28' W 016°15'0 0.0
2020-Jan-11 06:30N 28°28' W 016°15'0 0.0
2020-Jan-11 03:30N 28°28' W 016°15'0 0.0
2020-Jan-11 03:00N 28°28' W 016°15'0 0.0
2020-Jan-11 02:30N 28°28' W 016°15'0 0.0
2020-Jan-11 01:30N 28°28' W 016°15'0 0.0
2020-Jan-11 00:00N 28°28' W 016°15'0 0.0
2020-Jan-10 23:30N 28°28' W 016°15'0 0.0
2020-Jan-10 17:30N 28°28' W 016°15'0 0.0
2020-Jan-10 17:00N 28°28' W 016°15'0 0.0
2020-Jan-10 15:30N 28°28' W 016°15'0 0.0
2020-Jan-10 12:30N 28°28' W 016°15'0 0.0
2020-Jan-10 10:30N 28°28' W 016°15'2 0.8
2020-Jan-10 08:30N 28°26' W 016°15'2 4.0
2020-Jan-10 08:00N 28°28' W 016°13'1 1.1
2020-Jan-10 07:30N 28°27' W 016°13'1 1.7
2020-Jan-10 07:00N 28°26' W 016°13'2 3.7
2020-Jan-10 06:30N 28°24' W 016°13'13 2.6
2020-Jan-10 01:30N 28°31' W 016°01'4 7.0
2020-Jan-10 01:00N 28°34' W 015°59'  
2020-Jan-05 15:00N 38°36' W 009°29'9 4.3
2020-Jan-05 13:00N 38°40' W 009°19'7 7.5
2020-Jan-05 12:00N 38°42' W 009°10'2 1.6
2020-Jan-05 10:29N 38°43' W 009°07'0 0.0
2020-Jan-05 09:29N 38°43' W 009°07'0 0.0
2020-Jan-05 08:59N 38°43' W 009°07'0 0.0
2020-Jan-05 08:29N 38°43' W 009°07'0 0.0
2020-Jan-05 07:29N 38°43' W 009°07'0 0.0
2020-Jan-05 06:59N 38°43' W 009°07'0 0.0
2020-Jan-05 05:59N 38°43' W 009°07'0 0.0
2020-Jan-05 05:29N 38°43' W 009°07'0 0.0
2020-Jan-04 22:26N 38°43' W 009°07'0 0.0
2020-Jan-04 20:59N 38°43' W 009°07'0 0.0
2020-Jan-04 20:29N 38°43' W 009°07'0 0.0
2020-Jan-04 19:29N 38°43' W 009°07'0 0.0
2020-Jan-04 16:59N 38°43' W 009°07'0 0.0
2020-Jan-04 15:56N 38°43' W 009°07'0 0.0
2020-Jan-04 15:29N 38°43' W 009°07'0 0.0
2020-Jan-04 14:59N 38°43' W 009°07'0 0.0
2020-Jan-04 13:59N 38°43' W 009°07'0 0.0
2020-Jan-04 09:59N 38°43' W 009°07'0 0.0
2020-Jan-04 08:29N 38°43' W 009°07'0 0.0
2020-Jan-04 07:59N 38°43' W 009°07'0 0.0
2020-Jan-04 06:59N 38°43' W 009°07'0 0.0
2020-Jan-04 06:29N 38°43' W 009°07'0 0.0
2020-Jan-04 04:59N 38°43' W 009°07'0 0.0
2020-Jan-04 04:29N 38°43' W 009°07'0 0.0
2020-Jan-04 02:59N 38°43' W 009°07'0 0.0
2020-Jan-03 20:59N 38°43' W 009°07'0 0.0
2020-Jan-03 18:59N 38°43' W 009°07'3 0.5
2020-Jan-03 13:28N 38°40' W 009°09'0 0.0
2020-Jan-03 12:28N 38°40' W 009°09'  

Dump ship's entire track history